createdAt,value
2022-08-10T00:02:15.738Z,18.90
2022-08-10T00:04:44.766Z,18.80
2022-08-10T00:07:13.923Z,18.80
2022-08-10T00:09:50.724Z,18.80
2022-08-10T00:12:21.073Z,18.80
2022-08-10T00:14:51.604Z,18.70
2022-08-10T00:17:20.657Z,18.70
2022-08-10T00:20:03.061Z,18.70
2022-08-10T00:22:33.635Z,18.70
2022-08-10T00:25:03.610Z,18.70
2022-08-10T00:27:52.985Z,18.70
2022-08-10T00:30:29.130Z,18.70
2022-08-10T00:32:58.116Z,18.70
2022-08-10T00:35:27.400Z,18.70
2022-08-10T00:37:57.988Z,18.60
2022-08-10T00:40:37.057Z,18.70
2022-08-10T00:43:07.537Z,18.60
2022-08-10T00:45:38.389Z,18.60
2022-08-10T00:48:07.969Z,18.60
2022-08-10T00:50:38.051Z,18.70
2022-08-10T00:53:08.256Z,18.70
2022-08-10T00:57:14.613Z,18.60
2022-08-10T00:58:28.607Z,18.60
2022-08-10T01:00:59.286Z,18.60
2022-08-10T01:04:57.924Z,18.50
2022-08-10T01:06:28.307Z,18.40
2022-08-10T01:09:06.929Z,18.40
2022-08-10T01:12:39.464Z,18.30
2022-08-10T01:14:43.898Z,18.20
2022-08-10T01:17:17.636Z,18.20
2022-08-10T01:19:58.708Z,18.10
2022-08-10T01:22:54.528Z,18.00
2022-08-10T01:26:12.072Z,17.90
2022-08-10T01:28:52.644Z,17.80
2022-08-10T01:31:27.975Z,17.70
2022-08-10T01:34:02.411Z,17.60
2022-08-10T01:36:36.789Z,17.50
2022-08-10T01:39:07.749Z,17.50
2022-08-10T01:42:00.008Z,17.50
2022-08-10T01:44:33.748Z,17.50
2022-08-10T01:47:23.695Z,17.50
2022-08-10T01:50:00.552Z,17.40
2022-08-10T01:52:32.338Z,17.40
2022-08-10T01:55:01.310Z,17.30
2022-08-10T01:57:33.240Z,17.30
2022-08-10T02:00:03.838Z,17.30
2022-08-10T02:02:39.418Z,17.30
2022-08-10T02:05:10.358Z,17.30
2022-08-10T02:07:42.413Z,17.30
2022-08-10T02:10:15.456Z,17.30
2022-08-10T02:12:46.411Z,17.20
2022-08-10T02:15:18.615Z,17.20
2022-08-10T02:17:59.988Z,17.10
2022-08-10T02:20:36.495Z,17.20
2022-08-10T02:23:09.975Z,17.10
2022-08-10T02:25:43.786Z,17.00
2022-08-10T02:28:27.212Z,17.00
2022-08-10T02:31:06.287Z,16.90
2022-08-10T02:33:38.606Z,16.90
2022-08-10T02:36:29.368Z,16.90
2022-08-10T02:39:02.878Z,16.80
2022-08-10T02:45:13.000Z,16.80
2022-08-10T02:45:29.478Z,16.80
2022-08-10T02:47:27.839Z,16.70
2022-08-10T02:50:04.424Z,16.80
2022-08-10T02:52:40.509Z,16.80
2022-08-10T02:55:18.594Z,16.90
2022-08-10T02:58:15.228Z,16.90
2022-08-10T03:00:46.793Z,16.90
2022-08-10T03:03:21.690Z,16.90
2022-08-10T03:05:56.944Z,17.00
2022-08-10T03:08:29.866Z,16.80
2022-08-10T03:11:01.419Z,16.70
2022-08-10T03:13:32.521Z,16.70
2022-08-10T03:16:04.068Z,16.80
2022-08-10T03:18:34.635Z,16.70
2022-08-10T03:21:11.351Z,16.70
2022-08-10T03:23:43.086Z,16.70
2022-08-10T03:26:13.428Z,16.60
2022-08-10T03:28:44.846Z,16.60
2022-08-10T03:31:14.662Z,16.50
2022-08-10T03:33:45.199Z,16.60
2022-08-10T03:36:42.356Z,16.50
2022-08-10T03:39:05.159Z,16.50
2022-08-10T03:41:56.628Z,16.60
2022-08-10T03:44:29.986Z,16.70
2022-08-10T03:47:02.263Z,17.00
2022-08-10T03:49:34.497Z,17.20
2022-08-10T03:52:07.158Z,17.30
2022-08-10T03:54:36.598Z,17.30
2022-08-10T03:57:06.117Z,17.10
2022-08-10T03:59:36.526Z,17.00
2022-08-10T04:02:43.629Z,16.80
2022-08-10T04:04:56.030Z,16.70
2022-08-10T04:07:27.055Z,16.60
2022-08-10T04:09:56.529Z,16.60
2022-08-10T04:12:28.015Z,16.60
2022-08-10T04:14:57.067Z,16.70
2022-08-10T04:18:01.282Z,16.80
2022-08-10T04:20:21.062Z,17.10
2022-08-10T04:22:55.238Z,17.40
2022-08-10T04:25:26.333Z,17.70
2022-08-10T04:27:56.688Z,17.90
2022-08-10T04:30:27.897Z,18.20
2022-08-10T04:32:59.815Z,18.50
2022-08-10T04:35:30.848Z,18.70
2022-08-10T04:38:03.606Z,19.00
2022-08-10T04:40:32.929Z,19.20
2022-08-10T04:43:11.264Z,19.50
2022-08-10T04:45:50.158Z,19.80
2022-08-10T04:48:41.142Z,20.10
2022-08-10T04:51:17.242Z,20.20
2022-08-10T04:54:04.482Z,20.10
2022-08-10T04:56:38.286Z,20.10
2022-08-10T04:59:08.732Z,20.10
2022-08-10T05:02:21.821Z,20.20
2022-08-10T05:04:35.734Z,20.30
2022-08-10T05:07:16.972Z,20.60
2022-08-10T05:10:01.332Z,20.40
2022-08-10T05:12:35.888Z,20.30
2022-08-10T05:15:08.448Z,20.80
2022-08-10T05:17:38.362Z,21.50
2022-08-10T05:20:11.037Z,21.80
2022-08-10T05:22:42.929Z,22.00
2022-08-10T05:25:37.362Z,21.80
2022-08-10T05:28:08.017Z,21.90
2022-08-10T05:30:37.467Z,21.80
2022-08-10T05:33:09.000Z,21.90
2022-08-10T05:35:56.562Z,21.90
2022-08-10T05:38:28.658Z,22.50
2022-08-10T05:41:00.380Z,22.50
2022-08-10T05:43:29.709Z,22.30
2022-08-10T05:46:16.810Z,21.80
2022-08-10T05:48:58.895Z,22.30
2022-08-10T05:51:30.622Z,22.30
2022-08-10T05:54:06.275Z,22.00
2022-08-10T05:56:53.265Z,22.10
2022-08-10T06:00:33.384Z,22.60
2022-08-10T06:02:41.794Z,23.00
2022-08-10T06:05:13.703Z,23.10
2022-08-10T06:07:51.158Z,23.50
2022-08-10T06:10:32.310Z,23.00
2022-08-10T06:13:30.979Z,22.80
2022-08-10T06:16:07.637Z,22.60
2022-08-10T06:18:38.071Z,22.20
2022-08-10T06:21:09.835Z,22.50
2022-08-10T06:23:39.688Z,23.10
2022-08-10T06:26:14.138Z,23.90
2022-08-10T06:29:02.404Z,24.40
2022-08-10T06:31:48.901Z,24.50
2022-08-10T06:34:24.046Z,24.80
2022-08-10T06:36:54.476Z,25.70
2022-08-10T06:39:39.539Z,25.90
2022-08-10T06:42:17.923Z,26.40
2022-08-10T06:44:58.618Z,27.20
2022-08-10T06:47:34.186Z,27.60
2022-08-10T06:50:09.519Z,27.20
2022-08-10T06:52:40.848Z,26.70
2022-08-10T06:55:16.925Z,27.10
2022-08-10T06:57:59.762Z,28.10
2022-08-10T07:00:34.669Z,28.60
2022-08-10T07:03:09.137Z,29.00
2022-08-10T07:05:42.920Z,28.60
2022-08-10T07:08:13.495Z,28.40
2022-08-10T07:10:45.889Z,28.80
2022-08-10T07:14:17.396Z,29.50
2022-08-10T07:16:13.830Z,30.50
2022-08-10T07:18:46.373Z,31.00
2022-08-10T07:21:16.485Z,31.50
2022-08-10T07:23:58.060Z,32.20
2022-08-10T07:26:31.630Z,32.40
2022-08-10T07:29:01.848Z,32.40
2022-08-10T07:31:55.598Z,32.50
2022-08-10T07:34:29.513Z,32.90
2022-08-10T07:37:03.705Z,33.00
2022-08-10T07:40:02.997Z,31.30
2022-08-10T07:42:27.320Z,29.70
2022-08-10T07:45:00.787Z,28.40
2022-08-10T07:47:52.414Z,28.10
2022-08-10T07:50:26.438Z,27.40
2022-08-10T07:53:00.101Z,26.60
2022-08-10T07:56:03.662Z,26.50
2022-08-10T07:58:21.706Z,26.80
2022-08-10T08:00:53.867Z,27.70
2022-08-10T08:03:27.727Z,28.10
2022-08-10T08:06:05.347Z,27.60
2022-08-10T08:08:44.114Z,27.60
2022-08-10T08:11:26.217Z,28.20
2022-08-10T08:13:57.517Z,28.70
2022-08-10T08:16:27.155Z,29.30
2022-08-10T08:19:26.394Z,29.90
2022-08-10T08:24:05.848Z,30.20
2022-08-10T08:24:39.303Z,31.00
2022-08-10T08:27:09.120Z,30.90
2022-08-10T08:29:42.704Z,30.90
2022-08-10T08:32:13.047Z,31.60
2022-08-10T08:34:46.550Z,32.50
2022-08-10T08:38:31.491Z,33.20
2022-08-10T08:40:13.419Z,33.10
2022-08-10T08:43:10.850Z,33.30
2022-08-10T08:46:01.861Z,33.10
2022-08-10T08:48:54.256Z,32.10
2022-08-10T08:52:07.172Z,30.80
2022-08-10T08:54:38.500Z,30.80
2022-08-10T08:57:50.097Z,30.60
2022-08-10T09:00:29.059Z,30.50
2022-08-10T09:03:23.933Z,30.10
2022-08-10T09:06:05.909Z,30.00
2022-08-10T09:09:15.822Z,30.00
2022-08-10T09:12:00.226Z,29.50
2022-08-10T09:14:38.661Z,29.20
2022-08-10T09:17:21.986Z,28.60
2022-08-10T09:19:56.127Z,28.00
2022-08-10T09:22:42.267Z,27.50
2022-08-10T09:25:18.677Z,27.30
2022-08-10T09:27:49.624Z,27.50
2022-08-10T09:30:31.228Z,27.50
2022-08-10T09:36:23.353Z,27.80
2022-08-10T09:36:25.757Z,27.80
2022-08-10T09:40:50.092Z,27.70
2022-08-10T09:42:19.857Z,27.00
2022-08-10T09:44:57.612Z,26.40
2022-08-10T09:48:02.244Z,26.50
2022-08-10T09:51:22.384Z,26.70
2022-08-10T09:53:43.470Z,26.20
2022-08-10T09:56:28.703Z,25.10
2022-08-10T09:59:29.334Z,24.50
2022-08-10T10:02:15.349Z,24.70
2022-08-10T10:04:54.531Z,25.40
2022-08-10T10:07:28.984Z,26.00
2022-08-10T10:10:03.927Z,25.90
2022-08-10T10:12:43.829Z,25.50
2022-08-10T10:15:26.421Z,25.10
2022-08-10T10:18:06.587Z,25.40
2022-08-10T10:20:42.222Z,25.90
2022-08-10T10:23:31.409Z,25.70
2022-08-10T10:26:15.888Z,25.60
2022-08-10T10:31:59.687Z,26.10
2022-08-10T10:34:37.397Z,26.40
2022-08-10T10:37:08.897Z,26.50
2022-08-10T10:39:42.354Z,26.40
2022-08-10T10:42:44.314Z,25.80
2022-08-10T10:45:19.653Z,25.50
2022-08-10T10:48:01.223Z,25.40
2022-08-10T10:50:38.860Z,25.90
2022-08-10T10:53:15.600Z,26.60
2022-08-10T10:56:14.714Z,27.30
2022-08-10T10:58:49.349Z,27.90
2022-08-10T11:01:40.633Z,27.60
2022-08-10T11:04:21.652Z,27.00
2022-08-10T11:07:01.307Z,26.90
2022-08-10T11:10:05.343Z,27.10
2022-08-10T11:12:39.986Z,27.20
2022-08-10T11:15:25.418Z,26.60
2022-08-10T11:18:01.187Z,25.80
2022-08-10T11:20:41.846Z,25.70
2022-08-10T11:23:21.947Z,25.80
2022-08-10T11:25:59.669Z,26.10
2022-08-10T11:28:36.855Z,26.30
2022-08-10T11:31:14.021Z,26.40
2022-08-10T11:34:47.002Z,26.50
2022-08-10T11:36:49.174Z,26.50
2022-08-10T11:39:28.157Z,26.30
2022-08-10T11:42:07.692Z,26.10
2022-08-10T11:44:47.464Z,25.90
2022-08-10T11:47:20.932Z,25.80
2022-08-10T11:49:57.583Z,25.70
2022-08-10T11:52:40.330Z,26.00
2022-08-10T11:55:15.661Z,26.60
2022-08-10T11:57:54.604Z,27.20
2022-08-10T12:00:24.863Z,27.40
2022-08-10T12:03:01.781Z,26.80
2022-08-10T12:05:52.122Z,26.00
2022-08-10T12:10:01.776Z,25.60
2022-08-10T12:11:25.339Z,25.30
2022-08-10T12:14:20.205Z,25.10
2022-08-10T12:16:51.705Z,25.10
2022-08-10T12:19:29.377Z,25.30
2022-08-10T12:22:23.402Z,25.30
2022-08-10T12:24:58.777Z,25.30
2022-08-10T12:27:33.838Z,25.50
2022-08-10T12:30:06.670Z,25.80
2022-08-10T12:32:45.519Z,26.20
2022-08-10T12:35:22.813Z,26.50
2022-08-10T12:38:06.409Z,26.80
2022-08-10T12:40:43.841Z,27.00
2022-08-10T12:44:05.644Z,26.90
2022-08-10T12:46:14.452Z,26.80
2022-08-10T12:48:51.828Z,26.80
2022-08-10T12:51:26.580Z,26.30
2022-08-10T12:54:03.581Z,25.80
2022-08-10T12:56:40.099Z,25.10
2022-08-10T12:59:12.421Z,24.70
2022-08-10T13:02:09.832Z,24.40
2022-08-10T13:04:34.322Z,24.30
2022-08-10T13:07:05.721Z,24.30
2022-08-10T13:09:54.842Z,24.20
2022-08-10T13:12:34.890Z,24.20
2022-08-10T13:15:45.150Z,24.10
2022-08-10T13:18:18.665Z,24.20
2022-08-10T13:20:53.804Z,24.20
2022-08-10T13:23:27.114Z,24.30
2022-08-10T13:25:59.725Z,24.60
2022-08-10T13:28:45.881Z,24.80
2022-08-10T13:31:19.721Z,25.10
2022-08-10T13:34:40.656Z,25.20
2022-08-10T13:36:43.559Z,25.40
2022-08-10T13:39:16.048Z,25.60
2022-08-10T13:41:48.263Z,25.80
2022-08-10T13:44:30.396Z,26.10
2022-08-10T13:47:00.311Z,25.90
2022-08-10T13:49:32.307Z,25.50
2022-08-10T13:52:02.560Z,25.40
2022-08-10T13:54:41.085Z,25.40
2022-08-10T13:57:13.134Z,25.20
2022-08-10T14:00:34.290Z,24.80
2022-08-10T14:02:45.534Z,24.70
2022-08-10T14:05:15.416Z,24.60
2022-08-10T14:08:01.194Z,24.60
2022-08-10T14:11:08.508Z,24.60
2022-08-10T14:13:30.406Z,24.70
2022-08-10T14:16:06.561Z,24.80
2022-08-10T14:18:37.168Z,25.00
2022-08-10T14:21:06.725Z,25.30
2022-08-10T14:23:42.030Z,25.40
2022-08-10T14:26:22.055Z,25.70
2022-08-10T14:28:55.543Z,25.20
2022-08-10T14:31:33.906Z,24.90
2022-08-10T14:34:08.540Z,24.70
2022-08-10T14:36:43.816Z,24.60
2022-08-10T14:39:21.046Z,24.50
2022-08-10T14:42:02.883Z,24.40
2022-08-10T14:44:46.859Z,24.30
2022-08-10T14:47:52.254Z,24.20
2022-08-10T14:50:11.730Z,24.10
2022-08-10T14:52:44.377Z,24.10
2022-08-10T14:55:19.559Z,24.10
2022-08-10T14:58:19.817Z,24.10
2022-08-10T15:00:43.717Z,24.10
2022-08-10T15:04:01.027Z,24.30
2022-08-10T15:06:18.071Z,24.30
2022-08-10T15:08:48.762Z,24.20
2022-08-10T15:12:13.571Z,24.20
2022-08-10T15:14:29.417Z,24.20
2022-08-10T15:16:59.734Z,24.20
2022-08-10T15:20:02.097Z,24.20
2022-08-10T15:22:42.275Z,24.40
2022-08-10T15:25:19.041Z,24.70
2022-08-10T15:27:57.876Z,24.70
2022-08-10T15:30:41.097Z,24.70
2022-08-10T15:34:03.612Z,24.70
2022-08-10T15:36:41.728Z,24.70
2022-08-10T15:40:21.101Z,24.60
2022-08-10T15:42:10.885Z,24.50
2022-08-10T15:44:42.263Z,24.30
2022-08-10T15:47:17.260Z,24.30
2022-08-10T15:49:54.732Z,24.20
2022-08-10T15:52:40.100Z,24.30
2022-08-10T15:55:43.486Z,24.20
2022-08-10T15:58:20.521Z,24.20
2022-08-10T16:02:13.199Z,24.10
2022-08-10T16:04:08.361Z,24.10
2022-08-10T16:06:44.009Z,24.10
2022-08-10T16:10:22.466Z,24.10
2022-08-10T16:12:17.034Z,24.10
2022-08-10T16:14:50.839Z,24.00
2022-08-10T16:17:23.878Z,24.00
2022-08-10T16:19:55.000Z,24.10
2022-08-10T16:22:34.035Z,24.00
2022-08-10T16:25:15.367Z,24.00
2022-08-10T16:27:46.160Z,23.90
2022-08-10T16:30:16.250Z,23.80
2022-08-10T16:32:47.511Z,23.90
2022-08-10T16:35:19.302Z,23.90
2022-08-10T16:37:58.668Z,23.90
2022-08-10T16:40:31.691Z,23.90
2022-08-10T16:43:03.604Z,23.80
2022-08-10T16:45:37.130Z,23.80
2022-08-10T16:48:08.663Z,23.80
2022-08-10T16:50:47.793Z,23.80
2022-08-10T16:53:19.857Z,23.80
2022-08-10T16:55:52.920Z,23.90
2022-08-10T16:58:27.811Z,23.90
2022-08-10T17:01:02.937Z,23.90
2022-08-10T17:04:07.087Z,24.00
2022-08-10T17:06:32.011Z,24.10
2022-08-10T17:09:04.787Z,24.20
2022-08-10T17:11:39.077Z,24.20
2022-08-10T17:14:11.553Z,24.20
2022-08-10T17:16:43.764Z,24.20
2022-08-10T17:19:16.505Z,24.20
2022-08-10T17:21:52.476Z,24.30
2022-08-10T17:24:25.365Z,24.20
2022-08-10T17:27:01.432Z,24.30
2022-08-10T17:30:04.722Z,24.30
2022-08-10T17:32:43.580Z,24.30
2022-08-10T17:35:19.733Z,24.30
2022-08-10T17:37:59.433Z,24.20
2022-08-10T17:40:30.113Z,24.20
2022-08-10T17:43:02.498Z,24.10
2022-08-10T17:45:47.701Z,23.90
2022-08-10T17:48:20.209Z,23.80
2022-08-10T17:50:52.618Z,23.90
2022-08-10T17:53:26.644Z,23.80
2022-08-10T17:55:59.323Z,23.80
2022-08-10T17:58:32.005Z,23.80
2022-08-10T18:01:40.533Z,23.80
2022-08-10T18:03:55.534Z,23.70
2022-08-10T18:06:25.236Z,23.70
2022-08-10T18:08:59.176Z,23.70
2022-08-10T18:11:36.335Z,23.50
2022-08-10T18:14:08.947Z,23.50
2022-08-10T18:16:41.690Z,23.50
2022-08-10T18:19:13.327Z,23.50
2022-08-10T18:21:43.706Z,23.40
2022-08-10T18:24:19.165Z,23.40
2022-08-10T18:26:51.640Z,23.30
2022-08-10T18:29:27.460Z,23.30
2022-08-10T18:32:00.773Z,23.30
2022-08-10T18:34:33.111Z,23.20
2022-08-10T18:37:04.475Z,23.10
2022-08-10T18:39:37.625Z,23.00
2022-08-10T18:42:14.120Z,23.00
2022-08-10T18:44:50.530Z,23.10
2022-08-10T18:47:27.679Z,23.00
2022-08-10T18:50:02.500Z,22.90
2022-08-10T18:52:34.952Z,22.80
2022-08-10T18:55:14.493Z,22.80
2022-08-10T18:58:08.611Z,22.70
2022-08-10T19:00:55.626Z,22.70
2022-08-10T19:03:53.959Z,22.60
2022-08-10T19:06:43.119Z,22.50
2022-08-10T19:09:47.142Z,22.40
2022-08-10T19:12:33.646Z,22.30
2022-08-10T19:15:10.914Z,22.30
2022-08-10T19:18:03.237Z,22.20
2022-08-10T19:20:39.702Z,22.10
2022-08-10T19:23:20.042Z,22.00
2022-08-10T19:26:42.865Z,22.00
2022-08-10T19:28:55.590Z,21.90
2022-08-10T19:31:43.924Z,21.80
2022-08-10T19:34:30.499Z,21.80
2022-08-10T19:37:10.252Z,21.70
2022-08-10T19:39:58.467Z,21.70
2022-08-10T19:42:35.506Z,21.70
2022-08-10T19:45:59.141Z,21.60
2022-08-10T19:48:13.568Z,21.60
2022-08-10T19:50:50.242Z,21.60
2022-08-10T19:53:28.347Z,21.50
2022-08-10T19:56:30.688Z,21.40
2022-08-10T19:59:04.605Z,21.40
2022-08-10T20:01:56.269Z,21.40
2022-08-10T20:04:31.726Z,21.40
2022-08-10T20:07:14.804Z,21.30
2022-08-10T20:09:50.352Z,21.30
2022-08-10T20:12:34.938Z,21.30
2022-08-10T20:15:08.853Z,21.20
2022-08-10T20:17:51.732Z,21.20
2022-08-10T20:20:31.213Z,21.20
2022-08-10T20:23:10.860Z,21.10
2022-08-10T20:25:41.519Z,21.10
2022-08-10T20:28:20.060Z,21.10
2022-08-10T20:30:54.051Z,21.00
2022-08-10T20:33:30.634Z,21.00
2022-08-10T20:36:04.574Z,21.00
2022-08-10T20:38:45.392Z,21.00
2022-08-10T20:41:25.626Z,21.00
2022-08-10T20:44:05.769Z,21.00
2022-08-10T20:46:41.920Z,21.00
2022-08-10T20:49:24.048Z,20.90
2022-08-10T20:51:58.089Z,20.80
2022-08-10T20:54:35.406Z,20.70
2022-08-10T20:57:55.721Z,20.70
2022-08-10T21:00:46.572Z,20.70
2022-08-10T21:03:43.962Z,20.60
2022-08-10T21:06:43.405Z,20.60
2022-08-10T21:09:25.989Z,20.60
2022-08-10T21:12:19.147Z,20.60
2022-08-10T21:14:57.441Z,20.60
2022-08-10T21:17:45.177Z,20.50
2022-08-10T21:23:21.240Z,20.40
2022-08-10T21:26:08.075Z,20.40
2022-08-10T21:29:01.624Z,20.40
2022-08-10T21:31:51.864Z,20.30
2022-08-10T21:34:54.269Z,20.20
2022-08-10T21:37:34.113Z,20.20
2022-08-10T21:40:40.484Z,20.20
2022-08-10T21:43:59.636Z,20.10
2022-08-10T21:47:02.759Z,20.00
2022-08-10T21:50:03.987Z,19.90
2022-08-10T21:53:04.180Z,19.90
2022-08-10T21:56:02.290Z,19.80
2022-08-10T21:58:55.252Z,19.90
2022-08-10T22:04:57.348Z,19.90
2022-08-10T22:07:46.417Z,19.90
2022-08-10T22:10:37.457Z,19.70
2022-08-10T22:13:25.603Z,19.60
2022-08-10T22:16:16.379Z,19.60
2022-08-10T22:19:12.535Z,19.60
2022-08-10T22:22:19.861Z,19.60
2022-08-10T22:25:29.392Z,19.60
2022-08-10T22:28:18.227Z,19.50
2022-08-10T22:31:24.558Z,20.50
2022-08-10T22:31:31.098Z,19.40
2022-08-10T22:34:33.636Z,19.40
2022-08-10T22:37:35.760Z,19.40
2022-08-10T22:40:29.315Z,19.40
2022-08-10T22:43:35.459Z,19.40
2022-08-10T22:46:25.418Z,19.30
2022-08-10T22:49:02.468Z,19.30
2022-08-10T22:51:44.676Z,19.30
2022-08-10T22:54:38.727Z,19.30
2022-08-10T22:57:30.511Z,19.30
2022-08-10T23:00:00.455Z,19.30
2022-08-10T23:02:35.698Z,19.30
2022-08-10T23:05:10.720Z,19.30
2022-08-10T23:07:48.718Z,19.30
2022-08-10T23:10:23.060Z,19.20
2022-08-10T23:12:58.394Z,19.20
2022-08-10T23:15:46.918Z,19.30
2022-08-10T23:18:39.706Z,19.30
2022-08-10T23:21:13.767Z,19.30
2022-08-10T23:23:44.503Z,19.30
2022-08-10T23:26:18.937Z,19.30
2022-08-10T23:29:05.187Z,19.20
2022-08-10T23:31:58.394Z,19.20
2022-08-10T23:34:32.079Z,19.20
2022-08-10T23:37:03.253Z,19.00
2022-08-10T23:39:36.054Z,19.00
2022-08-10T23:42:10.449Z,19.00
2022-08-10T23:44:43.975Z,19.00
2022-08-10T23:47:15.709Z,18.90
2022-08-10T23:49:46.748Z,18.90
2022-08-10T23:52:18.665Z,18.70
2022-08-10T23:54:52.691Z,18.70
2022-08-10T23:57:26.260Z,18.70
2022-08-10T23:59:59.025Z,18.70
